createdAt,value
2023-03-26T00:00:15.612Z,98297.47
2023-03-26T00:02:44.208Z,98296.59
2023-03-26T00:05:14.725Z,98291.09
2023-03-26T00:07:44.923Z,98286.00
2023-03-26T00:10:15.607Z,98281.78
2023-03-26T00:12:44.089Z,98279.69
2023-03-26T00:15:13.142Z,98278.91
2023-03-26T00:17:41.571Z,98288.47
2023-03-26T00:20:10.944Z,98285.22
2023-03-26T00:22:39.512Z,98288.06
2023-03-26T00:25:10.052Z,98289.84
2023-03-26T00:27:38.912Z,98290.88
2023-03-26T00:30:09.005Z,98289.84
2023-03-26T00:32:37.508Z,98294.16
2023-03-26T00:35:07.036Z,98291.69
2023-03-26T00:37:35.514Z,98285.63
2023-03-26T00:40:07.813Z,98288.19
2023-03-26T00:42:38.167Z,98288.97
2023-03-26T00:45:07.730Z,98288.00
2023-03-26T00:47:36.257Z,98289.84
2023-03-26T00:50:05.468Z,98280.47
2023-03-26T00:52:36.281Z,98274.41
2023-03-26T00:55:04.974Z,98274.47
2023-03-26T00:57:36.177Z,98271.91
2023-03-26T01:00:16.606Z,98269.31
2023-03-26T01:02:45.522Z,98267.47
2023-03-26T01:05:43.700Z,98256.50
2023-03-26T01:08:26.318Z,98260.06
2023-03-26T01:11:02.889Z,98255.09
2023-03-26T01:13:33.857Z,98255.22
2023-03-26T01:16:05.515Z,98255.28
2023-03-26T01:18:41.221Z,98250.09
2023-03-26T01:21:14.025Z,98256.97
2023-03-26T01:23:46.633Z,98262.19
2023-03-26T01:26:28.863Z,98262.38
2023-03-26T01:28:58.929Z,98263.06
2023-03-26T01:31:30.833Z,98264.69
2023-03-26T01:34:05.742Z,98261.53
2023-03-26T01:36:39.507Z,98253.75
2023-03-26T01:39:11.381Z,98255.38
2023-03-26T01:41:50.581Z,98256.34
2023-03-26T01:44:24.654Z,98250.44
2023-03-26T01:46:55.082Z,98244.50
2023-03-26T01:49:23.748Z,98238.50
2023-03-26T01:51:52.324Z,98236.06
2023-03-26T01:54:22.830Z,98238.47
2023-03-26T01:57:03.976Z,98241.91
2023-03-26T01:59:47.300Z,98234.19
2023-03-26T02:02:18.960Z,98236.88
2023-03-26T02:04:53.447Z,98242.91
2023-03-26T02:07:25.911Z,98243.84
2023-03-26T02:09:59.580Z,98248.25
2023-03-26T02:12:30.681Z,98245.69
2023-03-26T02:15:00.818Z,98239.63
2023-03-26T02:17:30.267Z,98237.91
2023-03-26T02:19:59.146Z,98233.81
2023-03-26T02:22:32.275Z,98228.53
2023-03-26T02:25:01.147Z,98225.97
2023-03-26T02:27:33.941Z,98228.50
2023-03-26T02:30:02.816Z,98225.00
2023-03-26T02:32:31.632Z,98229.34
2023-03-26T02:35:00.154Z,98225.22
2023-03-26T02:37:31.393Z,98223.56
2023-03-26T02:40:11.850Z,98223.47
2023-03-26T02:42:44.896Z,98215.88
2023-03-26T02:45:13.329Z,98215.03
2023-03-26T02:47:51.210Z,98212.56
2023-03-26T02:50:46.137Z,98212.59
2023-03-26T02:53:33.335Z,98214.94
2023-03-26T02:56:40.418Z,98202.78
2023-03-26T02:59:28.997Z,98206.06
2023-03-26T03:02:16.219Z,98192.66
2023-03-26T03:04:45.276Z,98196.59
2023-03-26T03:07:18.338Z,98195.41
2023-03-26T03:09:47.279Z,98194.50
2023-03-26T03:12:41.860Z,98190.25
2023-03-26T03:15:13.239Z,98189.03
2023-03-26T03:17:42.257Z,98179.72
2023-03-26T03:20:12.846Z,98186.16
2023-03-26T03:22:42.024Z,98170.88
2023-03-26T03:25:14.387Z,98176.91
2023-03-26T03:27:43.653Z,98167.44
2023-03-26T03:30:17.775Z,98173.56
2023-03-26T03:33:16.007Z,98171.88
2023-03-26T03:35:46.093Z,98163.34
2023-03-26T03:38:14.589Z,98165.91
2023-03-26T03:40:49.188Z,98166.41
2023-03-26T03:43:18.658Z,98161.41
2023-03-26T03:46:08.055Z,98152.91
2023-03-26T03:48:49.888Z,98153.03
2023-03-26T03:51:38.727Z,98152.28
2023-03-26T03:54:22.148Z,98143.72
2023-03-26T03:57:06.415Z,98144.75
2023-03-26T03:59:47.931Z,98143.31
2023-03-26T04:02:26.757Z,98142.38
2023-03-26T04:05:18.733Z,98136.34
2023-03-26T04:07:50.440Z,98135.34
2023-03-26T04:10:30.488Z,98138.75
2023-03-26T04:13:31.164Z,98134.41
2023-03-26T04:16:22.732Z,98134.97
2023-03-26T04:18:52.832Z,98128.84
2023-03-26T04:21:21.294Z,98124.72
2023-03-26T04:23:50.027Z,98123.16
2023-03-26T04:26:34.665Z,98123.72
2023-03-26T04:29:11.973Z,98119.53
2023-03-26T04:31:43.320Z,98110.09
2023-03-26T04:34:24.422Z,98116.91
2023-03-26T04:37:19.131Z,98115.06
2023-03-26T04:39:57.144Z,98105.28
2023-03-26T04:42:34.787Z,98109.19
2023-03-26T04:45:11.910Z,98096.44
2023-03-26T04:47:43.195Z,98094.50
2023-03-26T04:50:13.876Z,98093.72
2023-03-26T04:52:45.141Z,98096.78
2023-03-26T04:55:35.430Z,98093.31
2023-03-26T04:58:14.090Z,98092.38
2023-03-26T05:00:56.105Z,98081.72
2023-03-26T05:03:25.840Z,98082.06
2023-03-26T05:05:58.311Z,98078.44
2023-03-26T05:08:28.988Z,98077.38
2023-03-26T05:10:58.184Z,98072.59
2023-03-26T05:13:33.086Z,98079.94
2023-03-26T05:16:07.865Z,98080.59
2023-03-26T05:18:56.901Z,98082.50
2023-03-26T05:21:30.841Z,98073.28
2023-03-26T05:23:59.539Z,98081.22
2023-03-26T05:26:29.272Z,98082.38
2023-03-26T05:28:58.720Z,98085.00
2023-03-26T05:31:36.341Z,98076.28
2023-03-26T05:34:06.858Z,98088.47
2023-03-26T05:36:36.901Z,98082.94
2023-03-26T05:39:25.804Z,98082.66
2023-03-26T05:42:14.582Z,98076.38
2023-03-26T05:45:03.395Z,98078.00
2023-03-26T05:47:34.577Z,98082.94
2023-03-26T05:50:03.060Z,98082.91
2023-03-26T05:52:33.099Z,98076.06
2023-03-26T05:55:33.449Z,98078.38
2023-03-26T05:58:25.166Z,98075.69
2023-03-26T06:01:00.160Z,98074.00
2023-03-26T06:03:40.688Z,98071.63
2023-03-26T06:06:20.373Z,98069.81
2023-03-26T06:09:01.371Z,98065.53
2023-03-26T06:11:32.988Z,98054.13
2023-03-26T06:14:03.265Z,98044.47
2023-03-26T06:16:33.016Z,98039.84
2023-03-26T06:19:13.701Z,98041.25
2023-03-26T06:21:51.375Z,98038.44
2023-03-26T06:24:43.947Z,98035.69
2023-03-26T06:27:32.848Z,98028.75
2023-03-26T06:30:21.270Z,98035.69
2023-03-26T06:33:10.172Z,98028.06
2023-03-26T06:35:46.083Z,98019.53
2023-03-26T06:38:16.709Z,98016.19
2023-03-26T06:40:46.657Z,98016.19
2023-03-26T06:43:23.933Z,98012.84
2023-03-26T06:45:58.070Z,98011.25
2023-03-26T06:48:47.056Z,98005.78
2023-03-26T06:51:19.875Z,98008.66
2023-03-26T06:54:07.306Z,98012.13
2023-03-26T06:56:53.945Z,98010.44
2023-03-26T06:59:43.045Z,97999.97
2023-03-26T07:02:32.613Z,97998.88
2023-03-26T07:05:19.971Z,97995.13
2023-03-26T07:08:07.292Z,97988.91
2023-03-26T07:11:04.974Z,97996.25
2023-03-26T07:14:10.818Z,97984.31
2023-03-26T07:16:56.078Z,97980.25
2023-03-26T07:19:44.869Z,97970.63
2023-03-26T07:22:16.953Z,97963.88
2023-03-26T07:25:05.592Z,97964.94
2023-03-26T07:28:02.542Z,97961.41
2023-03-26T07:31:00.174Z,97956.81
2023-03-26T07:33:47.695Z,97951.94
2023-03-26T07:36:29.622Z,97956.34
2023-03-26T07:39:31.620Z,97954.41
2023-03-26T07:42:16.470Z,97956.22
2023-03-26T07:45:14.118Z,97952.78
2023-03-26T07:48:04.815Z,97950.13
2023-03-26T07:51:00.291Z,97948.28
2023-03-26T07:53:49.934Z,97940.66
2023-03-26T07:57:00.084Z,97944.00
2023-03-26T07:59:55.905Z,97938.13
2023-03-26T08:03:24.452Z,97932.41
2023-03-26T08:06:05.700Z,97921.41
2023-03-26T08:09:00.050Z,97909.63
2023-03-26T08:11:59.216Z,97923.53
2023-03-26T08:14:42.516Z,97921.44
2023-03-26T08:17:19.238Z,97922.06
2023-03-26T08:20:02.386Z,97919.66
2023-03-26T08:22:36.882Z,97921.66
2023-03-26T08:25:18.968Z,97927.16
2023-03-26T08:27:57.257Z,97925.47
2023-03-26T08:30:28.052Z,97916.94
2023-03-26T08:33:01.987Z,97910.19
2023-03-26T08:35:31.155Z,97906.03
2023-03-26T08:38:03.454Z,97906.84
2023-03-26T08:41:03.854Z,97901.97
2023-03-26T08:44:10.918Z,97903.13
2023-03-26T08:46:57.946Z,97888.47
2023-03-26T08:49:48.603Z,97889.13
2023-03-26T08:52:55.868Z,97883.13
2023-03-26T08:55:46.914Z,97885.63
2023-03-26T08:58:38.756Z,97880.34
2023-03-26T09:01:54.009Z,97876.66
2023-03-26T09:04:43.972Z,97875.38
2023-03-26T09:07:37.851Z,97870.28
2023-03-26T09:10:40.461Z,97868.28
2023-03-26T09:13:39.585Z,97857.06
2023-03-26T09:16:24.788Z,97860.34
2023-03-26T09:19:19.556Z,97853.56
2023-03-26T09:22:18.308Z,97842.41
2023-03-26T09:25:11.126Z,97840.47
2023-03-26T09:27:42.079Z,97847.22
2023-03-26T09:30:37.690Z,97850.78
2023-03-26T09:33:25.621Z,97849.69
2023-03-26T09:36:06.295Z,97852.50
2023-03-26T09:38:46.829Z,97845.00
2023-03-26T09:41:19.378Z,97846.47
2023-03-26T09:44:12.759Z,97845.00
2023-03-26T09:46:50.720Z,97839.00
2023-03-26T09:49:43.271Z,97833.75
2023-03-26T09:52:19.592Z,97830.16
2023-03-26T09:54:58.315Z,97829.56
2023-03-26T09:57:43.036Z,97824.41
2023-03-26T10:00:30.470Z,97817.44
2023-03-26T10:03:14.635Z,97821.56
2023-03-26T10:05:59.359Z,97822.66
2023-03-26T10:08:38.455Z,97820.97
2023-03-26T10:11:14.689Z,97814.03
2023-03-26T10:13:54.178Z,97814.84
2023-03-26T10:16:26.995Z,97811.91
2023-03-26T10:19:10.152Z,97814.50
2023-03-26T10:21:44.456Z,97804.88
2023-03-26T10:24:21.957Z,97807.22
2023-03-26T10:27:12.936Z,97807.13
2023-03-26T10:30:08.053Z,97799.78
2023-03-26T10:32:45.884Z,97804.59
2023-03-26T10:35:25.031Z,97803.66
2023-03-26T10:38:07.593Z,97790.75
2023-03-26T10:40:43.165Z,97790.72
2023-03-26T10:43:54.690Z,97796.53
2023-03-26T10:47:01.253Z,97787.22
2023-03-26T10:50:02.004Z,97798.28
2023-03-26T10:52:38.001Z,97786.34
2023-03-26T10:55:13.150Z,97786.22
2023-03-26T10:57:47.225Z,97792.06
2023-03-26T11:00:23.422Z,97778.41
2023-03-26T11:03:11.267Z,97779.31
2023-03-26T11:05:53.526Z,97784.97
2023-03-26T11:08:31.498Z,97777.19
2023-03-26T11:11:09.368Z,97778.03
2023-03-26T11:13:48.991Z,97776.53
2023-03-26T11:16:21.175Z,97777.91
2023-03-26T11:18:53.340Z,97773.47
2023-03-26T11:21:26.273Z,97768.41
2023-03-26T11:24:16.721Z,97776.09
2023-03-26T11:26:53.002Z,97769.09
2023-03-26T11:29:38.041Z,97767.75
2023-03-26T11:32:11.798Z,97774.56
2023-03-26T11:34:44.957Z,97768.41
2023-03-26T11:37:17.678Z,97770.44
2023-03-26T11:39:53.389Z,97764.03
2023-03-26T11:42:24.806Z,97761.31
2023-03-26T11:44:56.632Z,97766.97
2023-03-26T11:47:32.230Z,97764.75
2023-03-26T11:50:01.889Z,97760.94
2023-03-26T11:52:34.070Z,97761.31
2023-03-26T11:55:04.261Z,97761.00
2023-03-26T11:57:34.827Z,97760.56
2023-03-26T12:00:08.484Z,97757.13
2023-03-26T12:02:42.678Z,97754.69
2023-03-26T12:05:18.271Z,97751.44
2023-03-26T12:07:51.382Z,97750.28
2023-03-26T12:10:29.673Z,97757.44
2023-03-26T12:13:00.149Z,97752.81
2023-03-26T12:15:29.341Z,97746.88
2023-03-26T12:17:59.485Z,97735.88
2023-03-26T12:20:38.827Z,97748.66
2023-03-26T12:23:08.506Z,97735.81
2023-03-26T12:25:40.256Z,97740.91
2023-03-26T12:28:18.447Z,97734.63
2023-03-26T12:30:55.087Z,97737.41
2023-03-26T12:33:28.104Z,97730.31
2023-03-26T12:35:58.514Z,97736.56
2023-03-26T12:38:33.414Z,97729.72
2023-03-26T12:41:08.705Z,97722.81
2023-03-26T12:44:55.610Z,97726.03
2023-03-26T12:47:56.875Z,97727.88
2023-03-26T12:49:36.789Z,97730.34
2023-03-26T12:52:17.209Z,97724.31
2023-03-26T12:54:49.244Z,97714.25
2023-03-26T12:57:22.852Z,97722.47
2023-03-26T12:59:58.603Z,97718.19
2023-03-26T13:02:49.988Z,97726.03
2023-03-26T13:05:41.141Z,97722.81
2023-03-26T13:08:33.969Z,97730.00
2023-03-26T13:11:07.326Z,97724.19
2023-03-26T13:14:00.854Z,97722.47
2023-03-26T13:16:37.024Z,97725.69
2023-03-26T13:19:09.403Z,97721.97
2023-03-26T13:21:45.672Z,97724.44
2023-03-26T13:24:23.151Z,97723.56
2023-03-26T13:27:01.935Z,97717.94
2023-03-26T13:29:38.342Z,97710.25
2023-03-26T13:32:15.691Z,97718.88
2023-03-26T13:34:57.521Z,97713.59
2023-03-26T13:37:30.313Z,97708.22
2023-03-26T13:40:06.885Z,97713.59
2023-03-26T13:42:44.540Z,97708.63
2023-03-26T13:45:26.297Z,97704.34
2023-03-26T13:47:56.829Z,97711.53
2023-03-26T13:50:27.480Z,97714.94
2023-03-26T13:53:00.274Z,97709.50
2023-03-26T13:55:31.280Z,97710.47
2023-03-26T13:58:05.136Z,97704.06
2023-03-26T14:00:54.889Z,97703.16
2023-03-26T14:03:29.220Z,97704.59
2023-03-26T14:05:59.406Z,97707.44
2023-03-26T14:08:32.925Z,97708.94
2023-03-26T14:11:08.928Z,97699.00
2023-03-26T14:13:42.472Z,97705.69
2023-03-26T14:16:17.380Z,97705.06
2023-03-26T14:18:49.088Z,97708.38
2023-03-26T14:21:41.104Z,97716.38
2023-03-26T14:24:28.630Z,97709.72
2023-03-26T14:27:06.723Z,97713.00
2023-03-26T14:29:57.502Z,97701.88
2023-03-26T14:32:39.124Z,97711.41
2023-03-26T14:35:20.426Z,97707.00
2023-03-26T14:38:16.401Z,97710.22
2023-03-26T14:40:58.838Z,97708.53
2023-03-26T14:43:50.988Z,97705.94
2023-03-26T14:46:36.125Z,97708.88
2023-03-26T14:49:29.099Z,97709.78
2023-03-26T14:52:11.050Z,97709.25
2023-03-26T14:54:41.816Z,97702.19
2023-03-26T14:57:47.820Z,97709.97
2023-03-26T15:00:49.683Z,97707.34
2023-03-26T15:03:55.612Z,97710.13
2023-03-26T15:07:02.942Z,97697.47
2023-03-26T15:10:08.556Z,97700.97
2023-03-26T15:12:52.315Z,97698.97
2023-03-26T15:15:53.918Z,97692.81
2023-03-26T15:19:02.024Z,97690.22
2023-03-26T15:21:59.108Z,97693.78
2023-03-26T15:25:06.028Z,97692.31
2023-03-26T15:27:52.133Z,97693.75
2023-03-26T15:31:10.069Z,97692.56
2023-03-26T15:34:21.848Z,97697.72
2023-03-26T15:37:27.807Z,97698.66
2023-03-26T15:40:17.954Z,97699.59
2023-03-26T15:42:59.910Z,97700.66
2023-03-26T15:45:41.310Z,97701.53
2023-03-26T15:48:36.732Z,97708.41
2023-03-26T15:51:22.102Z,97706.03
2023-03-26T15:53:56.602Z,97705.84
2023-03-26T15:56:33.061Z,97703.25
2023-03-26T15:59:07.818Z,97710.22
2023-03-26T16:01:47.423Z,97705.72
2023-03-26T16:04:50.329Z,97713.50
2023-03-26T16:07:58.954Z,97711.00
2023-03-26T16:10:29.732Z,97701.50
2023-03-26T16:13:29.899Z,97708.41
2023-03-26T16:16:18.749Z,97699.97
2023-03-26T16:18:48.507Z,97712.75
2023-03-26T16:21:46.607Z,97709.22
2023-03-26T16:24:33.719Z,97702.56
2023-03-26T16:27:33.580Z,97708.34
2023-03-26T16:30:28.093Z,97708.09
2023-03-26T16:32:59.339Z,97708.84
2023-03-26T16:35:59.831Z,97716.97
2023-03-26T16:38:28.848Z,97710.81
2023-03-26T16:41:03.780Z,97700.50
2023-03-26T16:43:43.967Z,97706.16
2023-03-26T16:46:21.509Z,97712.19
2023-03-26T16:48:58.104Z,97710.44
2023-03-26T16:51:35.489Z,97706.97
2023-03-26T16:54:13.542Z,97713.13
2023-03-26T16:56:47.893Z,97709.03
2023-03-26T16:59:38.019Z,97712.63
2023-03-26T17:02:17.612Z,97714.44
2023-03-26T17:04:50.275Z,97717.84
2023-03-26T17:07:21.836Z,97713.69
2023-03-26T17:09:55.870Z,97710.03
2023-03-26T17:12:31.516Z,97725.53
2023-03-26T17:15:18.961Z,97726.47
2023-03-26T17:17:56.892Z,97724.75
2023-03-26T17:20:33.310Z,97722.97
2023-03-26T17:23:11.897Z,97713.63
2023-03-26T17:25:46.595Z,97723.00
2023-03-26T17:28:48.248Z,97717.34
2023-03-26T17:31:23.817Z,97720.72
2023-03-26T17:33:53.703Z,97709.66
2023-03-26T17:36:32.523Z,97723.31
2023-03-26T17:39:05.257Z,97725.31
2023-03-26T17:41:57.262Z,97727.81
2023-03-26T17:44:46.038Z,97718.53
2023-03-26T17:47:28.010Z,97726.75
2023-03-26T17:50:01.267Z,97725.44
2023-03-26T17:52:42.623Z,97721.28
2023-03-26T17:55:17.514Z,97720.34
2023-03-26T17:57:52.060Z,97726.44
2023-03-26T18:00:24.207Z,97724.75
2023-03-26T18:02:57.315Z,97719.59
2023-03-26T18:05:29.419Z,97715.13
2023-03-26T18:08:24.830Z,97714.31
2023-03-26T18:11:12.487Z,97718.53
2023-03-26T18:14:18.398Z,97714.19
2023-03-26T18:16:49.511Z,97709.88
2023-03-26T18:19:19.595Z,97709.88
2023-03-26T18:21:50.574Z,97716.91
2023-03-26T18:24:24.530Z,97720.53
2023-03-26T18:26:58.653Z,97712.69
2023-03-26T18:29:29.965Z,97706.88
2023-03-26T18:32:00.845Z,97714.44
2023-03-26T18:34:31.927Z,97700.84
2023-03-26T18:37:16.685Z,97700.56
2023-03-26T18:39:59.124Z,97714.38
2023-03-26T18:42:29.181Z,97713.44
2023-03-26T18:45:00.286Z,97712.56
2023-03-26T18:47:32.124Z,97704.13
2023-03-26T18:50:01.429Z,97697.34
2023-03-26T18:52:31.363Z,97708.41
2023-03-26T18:55:01.290Z,97715.44
2023-03-26T18:57:30.697Z,97717.19
2023-03-26T19:00:15.761Z,97717.69
2023-03-26T19:02:44.569Z,97714.34
2023-03-26T19:05:16.015Z,97719.84
2023-03-26T19:07:47.028Z,97720.28
2023-03-26T19:10:21.509Z,97727.41
2023-03-26T19:12:57.180Z,97725.84
2023-03-26T19:15:27.401Z,97725.91
2023-03-26T19:17:59.899Z,97736.50
2023-03-26T19:20:30.671Z,97738.38
2023-03-26T19:22:59.445Z,97731.44
2023-03-26T19:25:32.527Z,97733.44
2023-03-26T19:28:01.765Z,97733.56
2023-03-26T19:30:34.297Z,97731.81
2023-03-26T19:33:13.230Z,97731.25
2023-03-26T19:35:44.929Z,97723.44
2023-03-26T19:38:23.545Z,97727.81
2023-03-26T19:40:54.743Z,97727.09
2023-03-26T19:43:24.221Z,97726.66
2023-03-26T19:46:00.369Z,97733.59
2023-03-26T19:48:46.113Z,97734.50
2023-03-26T19:51:26.426Z,97732.97
2023-03-26T19:53:57.097Z,97733.06
2023-03-26T19:56:29.665Z,97735.59
2023-03-26T19:58:59.362Z,97736.44
2023-03-26T20:01:30.824Z,97739.94
2023-03-26T20:04:02.527Z,97743.38
2023-03-26T20:06:42.292Z,97739.34
2023-03-26T20:09:13.319Z,97734.34
2023-03-26T20:11:44.373Z,97737.81
2023-03-26T20:14:15.979Z,97732.66
2023-03-26T20:16:46.561Z,97742.88
2023-03-26T20:19:15.697Z,97749.91
2023-03-26T20:21:45.002Z,97734.59
2023-03-26T20:24:15.897Z,97745.75
2023-03-26T20:26:47.248Z,97744.13
2023-03-26T20:29:17.355Z,97746.72
2023-03-26T20:31:46.407Z,97747.53
2023-03-26T20:34:20.922Z,97751.88
2023-03-26T20:36:54.522Z,97751.03
2023-03-26T20:39:24.310Z,97754.41
2023-03-26T20:41:56.513Z,97756.06
2023-03-26T20:44:27.010Z,97758.50
2023-03-26T20:46:56.582Z,97762.88
2023-03-26T20:49:29.421Z,97762.88
2023-03-26T20:51:59.684Z,97762.00
2023-03-26T20:54:29.846Z,97776.53
2023-03-26T20:57:00.195Z,97765.38
2023-03-26T20:59:36.048Z,97772.25
2023-03-26T21:02:10.443Z,97760.28
2023-03-26T21:04:40.429Z,97755.31
2023-03-26T21:07:18.228Z,97766.34
2023-03-26T21:09:48.948Z,97770.56
2023-03-26T21:12:25.931Z,97766.34
2023-03-26T21:14:55.859Z,97778.31
2023-03-26T21:17:25.370Z,97778.44
2023-03-26T21:19:54.830Z,97784.44
2023-03-26T21:22:31.946Z,97783.59
2023-03-26T21:25:12.997Z,97776.78
2023-03-26T21:27:49.864Z,97769.91
2023-03-26T21:30:19.263Z,97777.59
2023-03-26T21:32:48.788Z,97785.31
2023-03-26T21:35:18.273Z,97774.22
2023-03-26T21:37:48.961Z,97791.38
2023-03-26T21:40:18.592Z,97783.59
2023-03-26T21:42:50.387Z,97796.44
2023-03-26T21:45:20.652Z,97798.22
2023-03-26T21:47:50.483Z,97800.69
2023-03-26T21:50:21.990Z,97802.41
2023-03-26T21:52:51.678Z,97800.69
2023-03-26T21:55:21.932Z,97807.53
2023-03-26T21:58:17.163Z,97817.91
2023-03-26T22:00:51.974Z,97819.56
2023-03-26T22:03:25.246Z,97819.72
2023-03-26T22:05:57.817Z,97813.72
2023-03-26T22:08:32.417Z,97821.44
2023-03-26T22:11:01.524Z,97828.25
2023-03-26T22:13:31.834Z,97824.72
2023-03-26T22:16:00.944Z,97823.09
2023-03-26T22:18:30.305Z,97817.13
2023-03-26T22:20:59.407Z,97818.09
2023-03-26T22:23:28.031Z,97824.09
2023-03-26T22:25:56.534Z,97825.78
2023-03-26T22:28:24.954Z,97818.97
2023-03-26T22:30:55.031Z,97822.41
2023-03-26T22:33:23.581Z,97822.44
2023-03-26T22:35:52.459Z,97828.41
2023-03-26T22:38:22.161Z,97826.72
2023-03-26T22:40:57.276Z,97824.94
2023-03-26T22:43:26.283Z,97830.09
2023-03-26T22:45:56.041Z,97832.78
2023-03-26T22:48:25.098Z,97828.41
2023-03-26T22:51:01.059Z,97831.06
2023-03-26T22:53:30.413Z,97820.81
2023-03-26T22:55:59.130Z,97825.13
2023-03-26T22:58:28.332Z,97822.59
2023-03-26T23:01:05.129Z,97825.16
2023-03-26T23:03:36.968Z,97818.28
2023-03-26T23:06:07.269Z,97827.72
2023-03-26T23:08:37.525Z,97818.25
2023-03-26T23:11:10.517Z,97826.06
2023-03-26T23:13:41.759Z,97822.59
2023-03-26T23:16:13.127Z,97835.44
2023-03-26T23:18:41.748Z,97825.25
2023-03-26T23:21:14.977Z,97826.91
2023-03-26T23:23:43.698Z,97835.50
2023-03-26T23:26:14.382Z,97831.22
2023-03-26T23:28:43.493Z,97818.38
2023-03-26T23:31:14.201Z,97818.53
2023-03-26T23:33:46.558Z,97822.84
2023-03-26T23:36:17.872Z,97832.28
2023-03-26T23:38:47.995Z,97830.69
2023-03-26T23:41:16.985Z,97834.88
2023-03-26T23:43:54.740Z,97828.91
2023-03-26T23:46:30.989Z,97824.69
2023-03-26T23:49:02.592Z,97822.19
2023-03-26T23:51:31.839Z,97833.22
2023-03-26T23:54:00.603Z,97829.81
2023-03-26T23:56:29.916Z,97825.50
2023-03-26T23:58:58.500Z,97823.00
